Time;durP1;ratioP1;P1;durP2;ratioP2;P2;SDS_P1;SDS_P2;PMS_P1;PMS_P2;Temp;Humidity;BMP_temperature;BMP_pressure;BME280_temperature;BME280_humidity;BME280_pressure;Samples;Min_cycle;Max_cycle;Signal;HPM_P1;HPM_P2
2022/07/19 00:01:28;;;;;;;0.75;0.75;;;24.30;87.80;;;;;;5094550;28;20170;-57
2022/07/19 00:03:55;;;;;;;2.33;1.02;;;24.30;88.40;;;;;;5094418;28;20178;-58
2022/07/19 00:06:21;;;;;;;0.90;0.90;;;24.30;88.00;;;;;;5076561;28;20253;-54
2022/07/19 00:08:47;;;;;;;1.30;1.00;;;24.30;88.50;;;;;;5076289;28;20397;-53
2022/07/19 00:11:12;;;;;;;1.00;0.70;;;24.30;88.90;;;;;;5094340;28;20213;-56
2022/07/19 00:13:38;;;;;;;1.98;0.90;;;24.20;89.40;;;;;;5059668;28;20170;-56
2022/07/19 00:16:04;;;;;;;1.73;0.93;;;24.20;89.70;;;;;;5094261;28;20170;-57
2022/07/19 00:18:30;;;;;;;1.88;1.20;;;24.10;89.60;;;;;;5076087;28;20174;-57
2022/07/19 00:20:56;;;;;;;1.00;0.85;;;24.10;90.00;;;;;;5076137;28;20281;-57
2022/07/19 00:23:21;;;;;;;1.88;1.13;;;24.00;89.60;;;;;;5094353;28;20209;-56
2022/07/19 00:25:47;;;;;;;0.95;0.95;;;24.00;90.00;;;;;;5094130;28;20174;-57
2022/07/19 00:28:13;;;;;;;1.02;1.00;;;23.90;90.40;;;;;;5094163;28;20178;-56
2022/07/19 00:30:39;;;;;;;0.82;0.82;;;23.80;90.40;;;;;;5093941;28;20201;-58
2022/07/19 00:33:08;;;;;;;1.15;0.93;;;23.80;90.30;;;;;;5094117;28;20260;-57
2022/07/19 00:35:35;;;;;;;1.27;0.93;;;23.80;90.20;;;;;;5093849;28;20623;-56
2022/07/19 00:38:08;;;;;;;0.80;0.80;;;23.80;90.20;;;;;;5075884;28;20176;-56
2022/07/19 00:40:35;;;;;;;2.17;1.00;;;23.80;90.10;;;;;;5093315;28;20178;-56
2022/07/19 00:43:00;;;;;;;1.10;1.00;;;23.70;90.20;;;;;;5075731;28;20581;-57
2022/07/19 00:45:27;;;;;;;1.02;0.93;;;23.70;90.50;;;;;;5075597;28;20182;-57
2022/07/19 00:47:53;;;;;;;1.02;0.90;;;23.70;90.40;;;;;;5093919;28;20182;-56
2022/07/19 00:50:20;;;;;;;0.90;0.90;;;23.60;91.00;;;;;;5075907;28;20609;-57
2022/07/19 00:52:54;;;;;;;1.10;1.00;;;23.50;90.80;;;;;;5075955;28;20223;-56
2022/07/19 00:55:22;;;;;;;1.50;1.20;;;23.50;91.10;;;;;;5093775;28;20220;-57
2022/07/19 00:57:48;;;;;;;1.52;1.10;;;23.50;91.20;;;;;;5093555;28;20166;-56
2022/07/19 01:00:16;;;;;;;1.63;0.98;;;23.40;91.20;;;;;;5058693;28;20277;-56
2022/07/19 01:02:42;;;;;;;1.30;1.20;;;23.40;91.60;;;;;;5093695;28;20205;-58
2022/07/19 01:05:09;;;;;;;1.10;1.00;;;23.40;91.50;;;;;;5093618;28;20161;-57
2022/07/19 01:07:37;;;;;;;1.27;1.00;;;23.40;91.40;;;;;;5093380;28;20182;-57
2022/07/19 01:10:04;;;;;;;0.95;0.95;;;23.40;91.50;;;;;;5093524;28;20685;-57
2022/07/19 01:12:35;;;;;;;1.27;1.08;;;23.40;91.30;;;;;;5093317;28;20174;-57
2022/07/19 01:15:01;;;;;;;1.00;1.00;;;23.40;91.40;;;;;;5075829;28;20170;-57
2022/07/19 01:17:27;;;;;;;1.05;0.70;;;23.40;91.40;;;;;;5093454;28;20181;-57
2022/07/19 01:19:53;;;;;;;1.05;0.98;;;23.30;91.90;;;;;;5093577;28;20235;-57
2022/07/19 01:22:20;;;;;;;2.25;1.10;;;23.40;92.00;;;;;;5093417;28;20670;-57
2022/07/19 01:24:45;;;;;;;1.80;1.00;;;23.30;92.10;;;;;;5093312;28;20230;-56
2022/07/19 01:27:11;;;;;;;1.27;1.00;;;23.30;91.80;;;;;;5093264;28;20177;-57
2022/07/19 01:29:37;;;;;;;0.82;0.82;;;23.20;92.20;;;;;;5075221;28;20209;-56
2022/07/19 01:32:04;;;;;;;1.90;0.80;;;23.10;92.00;;;;;;5093467;28;20570;-56
2022/07/19 01:34:30;;;;;;;1.23;1.13;;;23.10;92.10;;;;;;5075533;28;20523;-57
2022/07/19 01:36:56;;;;;;;1.20;1.00;;;23.10;92.00;;;;;;5075734;28;20180;-57
2022/07/19 01:39:22;;;;;;;0.82;0.82;;;23.10;92.20;;;;;;5093068;28;20256;-55
2022/07/19 01:41:47;;;;;;;1.23;1.00;;;23.00;92.20;;;;;;5093077;28;20177;-56
2022/07/19 01:44:13;;;;;;;1.05;0.80;;;23.00;92.40;;;;;;5093272;28;20530;-56
2022/07/19 01:46:39;;;;;;;0.65;0.65;;;23.00;92.50;;;;;;5093389;28;20174;-57
2022/07/19 01:49:04;;;;;;;1.13;0.98;;;22.90;92.70;;;;;;5093102;28;20253;-57
2022/07/19 01:51:30;;;;;;;1.05;0.90;;;22.80;92.90;;;;;;5093508;28;20178;-57
2022/07/19 01:53:56;;;;;;;0.90;0.90;;;22.80;92.80;;;;;;5097289;28;20174;-57
2022/07/19 01:56:21;;;;;;;0.88;0.88;;;22.80;92.60;;;;;;5096814;28;20208;-56
2022/07/19 01:58:47;;;;;;;0.80;0.80;;;22.90;92.30;;;;;;5097109;28;20174;-57
2022/07/19 02:01:13;;;;;;;1.48;0.90;;;22.80;92.30;;;;;;5096872;28;20170;-57
2022/07/19 02:03:38;;;;;;;2.03;1.10;;;22.80;92.40;;;;;;5096775;28;20166;-57
2022/07/19 02:06:05;;;;;;;0.80;0.80;;;22.80;92.00;;;;;;5062044;28;20182;-57
2022/07/19 02:08:30;;;;;;;0.85;0.85;;;22.70;92.70;;;;;;5096761;28;20202;-58
2022/07/19 02:10:56;;;;;;;1.00;0.80;;;22.70;92.40;;;;;;5097073;28;20814;-57
2022/07/19 02:13:22;;;;;;;1.23;0.90;;;22.60;92.50;;;;;;5062158;28;20642;-56
2022/07/19 02:15:47;;;;;;;3.20;0.90;;;22.60;92.80;;;;;;5096639;28;20196;-57
2022/07/19 02:18:13;;;;;;;0.95;0.88;;;22.50;92.50;;;;;;5096624;28;20291;-57
2022/07/19 02:20:39;;;;;;;0.80;0.80;;;22.50;92.80;;;;;;5096661;28;20717;-57
2022/07/19 02:23:04;;;;;;;1.23;0.98;;;22.50;92.60;;;;;;5096667;28;20177;-58
2022/07/19 02:25:30;;;;;;;1.25;0.80;;;22.40;93.10;;;;;;5061632;28;20177;-58
2022/07/19 02:27:56;;;;;;;0.80;0.80;;;22.30;92.50;;;;;;5061811;28;20186;-57
2022/07/19 02:30:21;;;;;;;1.48;1.00;;;22.30;92.80;;;;;;5096414;28;20642;-56
2022/07/19 02:32:47;;;;;;;1.30;1.05;;;22.20;93.30;;;;;;5096283;28;20217;-57
2022/07/19 02:35:13;;;;;;;0.98;0.90;;;22.20;93.10;;;;;;5078128;28;20182;-57
2022/07/19 02:37:40;;;;;;;1.73;0.85;;;22.20;92.60;;;;;;5096294;28;20170;-58
2022/07/19 02:40:07;;;;;;;1.13;0.98;;;22.30;92.70;;;;;;5078171;28;20182;-57
2022/07/19 02:42:33;;;;;;;1.00;0.90;;;22.20;92.50;;;;;;5077858;28;20673;-57
2022/07/19 02:44:58;;;;;;;0.95;0.90;;;22.20;92.10;;;;;;5078061;28;20178;-56
2022/07/19 02:47:24;;;;;;;4.20;0.95;;;22.30;92.10;;;;;;5096022;28;20169;-57
2022/07/19 02:49:50;;;;;;;1.20;1.10;;;22.20;92.60;;;;;;5095983;28;20288;-58
2022/07/19 02:52:16;;;;;;;1.20;1.08;;;22.20;92.40;;;;;;5095994;28;20246;-58
2022/07/19 02:54:42;;;;;;;1.13;1.02;;;22.10;92.10;;;;;;5095756;28;20166;-58
2022/07/19 02:57:07;;;;;;;1.02;0.90;;;22.00;92.30;;;;;;5077989;28;20275;-57
2022/07/19 02:59:33;;;;;;;1.55;1.00;;;22.00;92.50;;;;;;5095663;28;20512;-55
2022/07/19 03:01:59;;;;;;;1.10;1.00;;;22.00;92.90;;;;;;5095592;28;20205;-57
2022/07/19 03:04:25;;;;;;;1.08;0.90;;;22.00;92.50;;;;;;5095470;28;20174;-57
2022/07/19 03:06:54;;;;;;;1.77;0.93;;;22.00;92.30;;;;;;5077438;28;20181;-57
2022/07/19 03:09:20;;;;;;;1.63;1.00;;;22.00;91.90;;;;;;5095298;28;20543;-57
2022/07/19 03:11:46;;;;;;;1.20;1.10;;;22.00;92.00;;;;;;5095693;28;20179;-57
2022/07/19 03:14:12;;;;;;;0.90;0.85;;;21.90;92.30;;;;;;5077445;28;20265;-57
2022/07/19 03:16:37;;;;;;;0.90;0.90;;;22.00;92.30;;;;;;5095352;28;20170;-57
2022/07/19 03:19:03;;;;;;;1.10;0.80;;;22.00;92.30;;;;;;5077332;28;20178;-57
2022/07/19 03:21:29;;;;;;;1.27;0.90;;;22.10;92.10;;;;;;5095263;28;20202;-57
2022/07/19 03:23:58;;;;;;;1.00;1.00;;;22.10;91.70;;;;;;5095277;28;20508;-57
2022/07/19 03:26:23;;;;;;;1.00;0.90;;;22.20;92.20;;;;;;5095439;28;20174;-58
2022/07/19 03:28:49;;;;;;;1.10;1.00;;;22.20;91.60;;;;;;5095315;28;20526;-57
2022/07/19 03:31:15;;;;;;;2.15;1.20;;;22.20;91.50;;;;;;5095003;28;20684;-58
2022/07/19 03:33:40;;;;;;;2.08;1.20;;;22.20;91.20;;;;;;5095303;28;20174;-58
2022/07/19 03:36:09;;;;;;;0.95;0.90;;;22.40;91.00;;;;;;5094970;28;20227;-59
2022/07/19 03:38:35;;;;;;;1.42;1.00;;;22.50;90.80;;;;;;5077202;28;20178;-57
2022/07/19 03:41:02;;;;;;;2.15;1.13;;;22.50;90.80;;;;;;5094887;28;20535;-58
2022/07/19 03:43:27;;;;;;;1.02;0.90;;;22.60;90.30;;;;;;5095053;28;20223;-58
2022/07/19 03:45:53;;;;;;;0.85;0.85;;;22.60;90.90;;;;;;5095110;28;20190;-58
2022/07/19 03:48:21;;;;;;;1.70;1.15;;;22.60;90.40;;;;;;5094769;28;20176;-58
2022/07/19 03:50:46;;;;;;;1.35;0.80;;;22.60;90.40;;;;;;5094550;28;20270;-57
2022/07/19 03:53:13;;;;;;;1.80;1.00;;;22.70;90.60;;;;;;5060065;28;20178;-58
2022/07/19 03:55:39;;;;;;;1.30;1.10;;;22.60;91.10;;;;;;5076919;28;20567;-57
2022/07/19 03:58:04;;;;;;;1.80;1.20;;;22.60;91.60;;;;;;5094811;28;20174;-57
2022/07/19 04:00:32;;;;;;;1.63;1.05;;;22.50;91.70;;;;;;5094701;28;20185;-57
2022/07/19 04:02:58;;;;;;;1.67;0.77;;;22.40;91.90;;;;;;5094620;28;20293;-56
2022/07/19 04:05:23;;;;;;;0.90;0.77;;;22.40;91.70;;;;;;5094477;28;20752;-57
2022/07/19 04:07:49;;;;;;;1.13;1.00;;;22.50;91.70;;;;;;5094902;28;20182;-57
2022/07/19 04:10:15;;;;;;;1.15;1.00;;;22.50;91.00;;;;;;5075950;28;20347;-58
2022/07/19 04:12:40;;;;;;;1.25;1.10;;;22.50;91.20;;;;;;5093617;28;20210;-57
2022/07/19 04:15:07;;;;;;;1.25;1.08;;;22.50;91.90;;;;;;5042400;28;20193;-57
2022/07/19 04:17:33;;;;;;;1.27;0.90;;;22.50;92.00;;;;;;5094520;28;20178;-55
2022/07/19 04:19:59;;;;;;;1.90;1.02;;;22.40;92.00;;;;;;5094151;28;20641;-57
2022/07/19 04:22:25;;;;;;;1.10;0.88;;;22.30;91.90;;;;;;5094147;28;20174;-57
2022/07/19 04:24:51;;;;;;;0.90;0.90;;;22.30;92.20;;;;;;5076241;28;20173;-58
2022/07/19 04:27:17;;;;;;;1.27;1.00;;;22.30;92.30;;;;;;5076038;28;20737;-57
2022/07/19 04:29:42;;;;;;;1.17;1.05;;;22.30;92.20;;;;;;5059360;28;20212;-58
2022/07/19 04:32:08;;;;;;;3.15;1.08;;;22.30;91.90;;;;;;5094012;28;20178;-58
2022/07/19 04:34:34;;;;;;;2.72;1.08;;;22.30;92.00;;;;;;5075899;28;20170;-57
2022/07/19 04:36:59;;;;;;;1.17;0.95;;;22.30;92.00;;;;;;5059042;28;20234;-59
2022/07/19 04:39:25;;;;;;;1.67;1.33;;;22.30;91.90;;;;;;5094166;28;20639;-57
2022/07/19 04:41:51;;;;;;;1.90;1.10;;;22.40;92.20;;;;;;5093823;28;20529;-57
2022/07/19 04:44:16;;;;;;;1.52;1.13;;;22.40;92.10;;;;;;5094152;28;20181;-57
2022/07/19 04:46:42;;;;;;;1.42;1.10;;;22.30;92.60;;;;;;5075734;28;20311;-58
2022/07/19 04:49:08;;;;;;;1.52;1.33;;;22.40;92.50;;;;;;5093555;28;20177;-57
2022/07/19 04:51:33;;;;;;;1.30;1.10;;;22.40;92.50;;;;;;5058537;28;20182;-57
2022/07/19 04:53:59;;;;;;;1.23;1.13;;;22.40;92.60;;;;;;5075851;28;20172;-57
2022/07/19 04:56:25;;;;;;;2.17;1.02;;;22.40;92.50;;;;;;5094011;28;20177;-58
2022/07/19 04:58:50;;;;;;;1.30;1.20;;;22.50;92.70;;;;;;5059049;28;20174;-58
2022/07/19 05:01:16;;;;;;;2.08;1.27;;;22.50;92.70;;;;;;5093605;28;20182;-58
2022/07/19 05:03:42;;;;;;;1.48;1.30;;;22.50;92.50;;;;;;5075422;28;20169;-59
2022/07/19 05:06:07;;;;;;;1.30;1.20;;;22.50;92.40;;;;;;5093397;28;20257;-58
2022/07/19 05:08:33;;;;;;;1.02;1.00;;;22.60;92.40;;;;;;5093651;28;20261;-57
2022/07/19 05:10:59;;;;;;;1.45;1.10;;;22.70;92.20;;;;;;5093379;28;20735;-57
2022/07/19 05:13:24;;;;;;;1.33;1.00;;;22.70;92.10;;;;;;5093281;28;20574;-58
2022/07/19 05:15:50;;;;;;;1.27;1.00;;;22.80;92.30;;;;;;5093463;28;20174;-58
2022/07/19 05:18:16;;;;;;;2.03;1.20;;;22.80;92.20;;;;;;5075395;28;20223;-57
2022/07/19 05:20:41;;;;;;;1.48;1.05;;;22.90;92.20;;;;;;5093188;28;20261;-58
2022/07/19 05:23:07;;;;;;;1.00;0.90;;;23.00;92.60;;;;;;5093486;28;20181;-57
2022/07/19 05:25:34;;;;;;;1.38;1.10;;;23.00;92.00;;;;;;5093893;28;20178;-56
2022/07/19 05:27:59;;;;;;;1.35;0.98;;;23.10;92.00;;;;;;5079512;28;20165;-58
2022/07/19 05:30:25;;;;;;;1.00;0.90;;;23.10;92.20;;;;;;5079415;28;20208;-57
2022/07/19 05:32:51;;;;;;;2.38;1.17;;;23.20;92.20;;;;;;5097383;28;20174;-57
2022/07/19 05:35:16;;;;;;;1.27;1.05;;;23.20;91.80;;;;;;5079246;28;20213;-58
2022/07/19 05:37:42;;;;;;;1.85;1.17;;;23.20;91.80;;;;;;5097498;28;20189;-57
2022/07/19 05:40:08;;;;;;;1.50;0.98;;;23.30;91.90;;;;;;5079177;28;20186;-58
2022/07/19 05:42:34;;;;;;;0.88;0.88;;;23.40;92.00;;;;;;5097346;28;20223;-59
2022/07/19 05:45:00;;;;;;;1.67;1.20;;;23.40;91.90;;;;;;5097181;28;20170;-57
2022/07/19 05:47:26;;;;;;;1.98;1.13;;;23.50;91.80;;;;;;5097105;28;20534;-57
2022/07/19 05:49:51;;;;;;;2.20;1.27;;;23.50;91.50;;;;;;5078864;28;20300;-58
2022/07/19 05:52:20;;;;;;;2.42;1.25;;;23.50;91.70;;;;;;5097019;28;20182;-57
2022/07/19 05:54:45;;;;;;;3.25;1.10;;;23.50;91.70;;;;;;5079257;28;20177;-57
2022/07/19 05:57:11;;;;;;;1.48;1.20;;;23.60;91.80;;;;;;5078915;28;20269;-57
2022/07/19 05:59:37;;;;;;;1.40;1.30;;;23.70;91.70;;;;;;5097027;28;20189;-57
2022/07/19 06:02:03;;;;;;;1.30;1.10;;;23.70;91.30;;;;;;5096723;28;20177;-57
2022/07/19 06:04:29;;;;;;;1.27;0.90;;;23.80;91.70;;;;;;5096669;28;20627;-58
2022/07/19 06:06:54;;;;;;;1.63;1.13;;;24.00;91.90;;;;;;5096909;28;20181;-58
2022/07/19 06:09:20;;;;;;;1.48;1.20;;;24.00;91.50;;;;;;5096596;28;20213;-57
2022/07/19 06:11:46;;;;;;;1.20;0.90;;;24.10;91.40;;;;;;5096745;28;20170;-57
2022/07/19 06:14:12;;;;;;;1.33;1.20;;;24.30;91.20;;;;;;5096590;28;20182;-57
2022/07/19 06:16:40;;;;;;;1.35;1.25;;;24.40;91.10;;;;;;5096535;28;20226;-59
2022/07/19 06:19:06;;;;;;;2.60;1.30;;;24.40;91.20;;;;;;5096535;28;20184;-58
2022/07/19 06:21:32;;;;;;;1.15;0.95;;;24.50;91.00;;;;;;5078356;28;20162;-60
2022/07/19 06:23:59;;;;;;;1.20;1.10;;;24.60;91.20;;;;;;5078340;28;20185;-57
2022/07/19 06:26:26;;;;;;;1.10;1.00;;;24.70;91.00;;;;;;5095625;28;20640;-56
2022/07/19 06:28:52;;;;;;;1.85;1.20;;;24.90;91.00;;;;;;5095804;28;20274;-56
2022/07/19 06:31:18;;;;;;;1.67;1.10;;;25.10;91.20;;;;;;5095723;28;20201;-57
2022/07/19 06:33:45;;;;;;;1.20;1.10;;;25.30;91.10;;;;;;5078003;28;20281;-57
2022/07/19 06:36:11;;;;;;;2.03;1.02;;;25.30;90.90;;;;;;5095877;28;20186;-54
2022/07/19 06:38:37;;;;;;;1.08;1.08;;;25.50;90.70;;;;;;5095104;28;20182;-57
2022/07/19 06:41:04;;;;;;;1.10;1.00;;;25.70;90.80;;;;;;5095793;28;20188;-57
2022/07/19 06:43:30;;;;;;;1.52;1.40;;;25.80;90.20;;;;;;5096050;28;20216;-56
2022/07/19 06:45:55;;;;;;;1.27;1.10;;;25.90;90.50;;;;;;5078066;28;20173;-58
2022/07/19 06:48:21;;;;;;;1.38;1.00;;;26.10;90.40;;;;;;5096052;28;20205;-56
2022/07/19 06:50:47;;;;;;;1.20;1.10;;;26.10;90.10;;;;;;5091886;28;20216;-57
2022/07/19 06:53:13;;;;;;;1.83;1.27;;;26.30;90.40;;;;;;5076314;28;20604;-57
2022/07/19 06:55:39;;;;;;;2.55;1.05;;;26.30;90.20;;;;;;5094910;28;20193;-56
2022/07/19 06:58:05;;;;;;;1.95;1.20;;;26.40;90.20;;;;;;5094365;28;20252;-55
2022/07/19 07:00:30;;;;;;;1.15;1.02;;;26.60;89.70;;;;;;5077232;28;20265;-57
2022/07/19 07:02:56;;;;;;;1.33;1.00;;;26.90;90.20;;;;;;5095764;28;20565;-57
2022/07/19 07:05:22;;;;;;;1.65;1.10;;;27.10;89.60;;;;;;5095480;28;20172;-57
2022/07/19 07:07:48;;;;;;;0.77;0.77;;;27.30;90.00;;;;;;5095642;28;20173;-56
2022/07/19 07:10:15;;;;;;;1.13;1.02;;;27.40;88.20;;;;;;5095744;28;20267;-57
2022/07/19 07:12:40;;;;;;;2.90;1.00;;;27.50;88.50;;;;;;5095620;28;20593;-57
2022/07/19 07:15:07;;;;;;;1.20;1.05;;;27.80;88.60;;;;;;5077405;28;20253;-57
2022/07/19 07:17:34;;;;;;;1.70;0.90;;;28.00;88.40;;;;;;5095863;28;20249;-55
2022/07/19 07:20:00;;;;;;;1.10;1.00;;;27.90;86.70;;;;;;5095474;28;20265;-57
2022/07/19 07:22:26;;;;;;;1.70;0.90;;;28.00;86.90;;;;;;5095267;28;20210;-57
2022/07/19 07:24:52;;;;;;;2.05;0.80;;;28.30;87.70;;;;;;5095299;28;20220;-57
2022/07/19 07:27:18;;;;;;;0.93;0.65;;;28.50;86.30;;;;;;5095333;28;20178;-57
2022/07/19 07:29:43;;;;;;;0.90;0.70;;;28.70;86.30;;;;;;5077100;28;20200;-57
2022/07/19 07:32:09;;;;;;;1.00;0.95;;;28.40;86.30;;;;;;5095331;28;20178;-55
2022/07/19 07:34:35;;;;;;;2.47;1.00;;;28.70;86.20;;;;;;5095104;28;20196;-56
2022/07/19 07:37:00;;;;;;;1.27;1.08;;;29.00;86.70;;;;;;5077106;28;20170;-56
2022/07/19 07:39:26;;;;;;;0.77;0.77;;;29.20;86.50;;;;;;5076951;28;20205;-56
2022/07/19 07:41:51;;;;;;;1.48;0.95;;;29.30;85.40;;;;;;5094177;28;20170;-55
2022/07/19 07:44:17;;;;;;;0.82;0.80;;;29.40;85.40;;;;;;5094693;28;20177;-57
2022/07/19 07:46:43;;;;;;;1.30;0.82;;;29.30;82.80;;;;;;5076948;28;20174;-57
2022/07/19 07:49:08;;;;;;;1.05;0.95;;;29.30;84.70;;;;;;5093980;28;20706;-57
2022/07/19 07:51:34;;;;;;;0.65;0.65;;;29.50;83.60;;;;;;5076527;28;20691;-56
2022/07/19 07:54:01;;;;;;;0.70;0.70;;;29.70;84.80;;;;;;5094418;28;20530;-57
2022/07/19 07:56:27;;;;;;;0.73;0.73;;;29.60;83.40;;;;;;5094344;28;20243;-57
2022/07/19 07:58:53;;;;;;;0.82;0.82;;;29.50;82.50;;;;;;5094386;28;20515;-57
2022/07/19 08:01:18;;;;;;;0.80;0.80;;;29.60;84.80;;;;;;5093890;28;20256;-56
2022/07/19 08:03:44;;;;;;;1.80;0.90;;;30.00;85.00;;;;;;5092900;28;20196;-57
2022/07/19 08:06:10;;;;;;;1.10;0.90;;;30.10;82.40;;;;;;5059445;28;20178;-52
2022/07/19 08:08:39;;;;;;;1.45;0.90;;;30.30;83.80;;;;;;5093904;28;20182;-56
2022/07/19 08:11:05;;;;;;;0.70;0.70;;;30.40;83.50;;;;;;5059140;28;20243;-57
2022/07/19 08:13:30;;;;;;;0.77;0.70;;;30.40;82.40;;;;;;5093409;28;20539;-55
2022/07/19 08:15:56;;;;;;;2.08;1.15;;;30.60;84.30;;;;;;5093642;28;20235;-56
2022/07/19 08:18:22;;;;;;;0.60;0.60;;;30.90;83.80;;;;;;5092603;28;20177;-56
2022/07/19 08:20:48;;;;;;;1.27;0.90;;;31.10;81.50;;;;;;5093079;28;20234;-56
2022/07/19 08:23:13;;;;;;;0.90;0.85;;;31.30;82.40;;;;;;5093169;28;20631;-58
2022/07/19 08:25:39;;;;;;;2.28;0.93;;;31.50;81.50;;;;;;5093100;28;20185;-55
2022/07/19 08:28:05;;;;;;;0.70;0.70;;;31.60;80.70;;;;;;5093819;28;20174;-57
2022/07/19 08:30:31;;;;;;;1.63;0.93;;;31.70;81.30;;;;;;5092240;28;20209;-56
2022/07/19 08:32:57;;;;;;;1.23;0.98;;;31.80;79.40;;;;;;5075907;28;20177;-53
2022/07/19 08:35:23;;;;;;;1.00;1.00;;;31.90;79.50;;;;;;5092810;28;20174;-56
2022/07/19 08:37:49;;;;;;;0.95;0.90;;;32.10;79.90;;;;;;5093859;28;20170;-57
2022/07/19 08:40:15;;;;;;;1.25;0.90;;;32.20;80.30;;;;;;5075672;28;20645;-57
2022/07/19 08:42:42;;;;;;;0.80;0.80;;;32.20;79.60;;;;;;5093774;28;20178;-57
2022/07/19 08:45:10;;;;;;;1.20;1.05;;;32.40;79.10;;;;;;5093918;28;20174;-57
2022/07/19 08:47:36;;;;;;;2.28;1.10;;;32.40;79.70;;;;;;5093905;28;20173;-56
2022/07/19 08:50:05;;;;;;;0.80;0.80;;;32.60;80.20;;;;;;5093747;28;20201;-57
2022/07/19 08:52:35;;;;;;;0.93;0.70;;;32.70;80.10;;;;;;5093643;28;20698;-56
2022/07/19 08:55:02;;;;;;;1.10;1.00;;;32.80;78.80;;;;;;5093923;28;20523;-57
2022/07/19 09:00:12;;;;;;;3.38;1.00;;;33.00;76.70;;;;;;5093286;28;20251;-56
2022/07/19 09:02:38;;;;;;;0.80;0.80;;;33.00;78.20;;;;;;5093633;28;20170;-56
2022/07/19 09:05:10;;;;;;;1.00;0.90;;;33.00;77.50;;;;;;5075863;28;20618;-56
2022/07/19 09:07:37;;;;;;;1.10;0.93;;;33.20;76.80;;;;;;5093516;28;20173;-56
2022/07/19 09:10:16;;;;;;;1.23;0.93;;;33.50;77.00;;;;;;5093548;28;20229;-57
2022/07/19 09:13:06;;;;;;;1.05;0.80;;;33.70;75.20;;;;;;5075566;28;20566;-57
2022/07/19 09:15:49;;;;;;;1.15;1.05;;;33.50;75.20;;;;;;5093867;28;20260;-57
2022/07/19 09:18:21;;;;;;;1.20;0.90;;;33.60;76.10;;;;;;5093227;28;20696;-56
2022/07/19 09:20:50;;;;;;;1.20;0.85;;;33.80;74.80;;;;;;5093275;28;20653;-57
2022/07/19 09:23:16;;;;;;;0.85;0.80;;;33.90;74.30;;;;;;5093350;28;20344;-57
2022/07/19 09:25:48;;;;;;;1.55;1.00;;;34.00;74.60;;;;;;5093388;28;20579;-57
2022/07/19 09:28:15;;;;;;;1.38;0.90;;;34.10;73.40;;;;;;5075490;28;20255;-56
2022/07/19 09:30:46;;;;;;;0.90;0.90;;;34.30;74.30;;;;;;5075066;28;20775;-57
2022/07/19 09:33:27;;;;;;;1.73;1.23;;;34.40;73.40;;;;;;5093235;28;20557;-57
2022/07/19 09:35:58;;;;;;;0.75;0.75;;;34.30;72.60;;;;;;5093327;28;20180;-57
2022/07/19 09:38:25;;;;;;;0.70;0.70;;;34.40;71.60;;;;;;5093262;28;20248;-57
2022/07/19 09:41:11;;;;;;;0.93;0.82;;;34.60;72.70;;;;;;5093113;28;20174;-56
2022/07/19 09:43:55;;;;;;;1.52;1.00;;;34.80;69.80;;;;;;5093293;28;20177;-57
2022/07/19 09:46:29;;;;;;;1.00;0.90;;;34.90;70.20;;;;;;5093115;28;20192;-52
2022/07/19 09:49:04;;;;;;;1.13;0.80;;;35.10;68.60;;;;;;5093072;28;20188;-57
2022/07/19 09:51:32;;;;;;;1.80;0.80;;;35.00;69.40;;;;;;5092935;28;20688;-58
2022/07/19 09:53:58;;;;;;;2.97;0.85;;;35.00;69.60;;;;;;5075242;28;20178;-57
2022/07/19 09:56:26;;;;;;;0.98;0.90;;;35.20;67.50;;;;;;5092946;28;20177;-59
2022/07/19 09:58:53;;;;;;;2.60;0.90;;;35.30;65.90;;;;;;5093037;28;20198;-58
2022/07/19 10:01:18;;;;;;;0.68;0.68;;;35.20;66.10;;;;;;5093055;28;20185;-58
2022/07/19 10:03:45;;;;;;;1.23;0.80;;;35.50;66.90;;;;;;5090077;28;20193;-57
2022/07/19 10:06:11;;;;;;;0.85;0.80;;;35.60;64.20;;;;;;5091808;28;20173;-57
2022/07/19 10:08:36;;;;;;;0.80;0.80;;;35.70;63.10;;;;;;5092614;28;20169;-58
2022/07/19 10:11:02;;;;;;;0.85;0.77;;;35.90;62.50;;;;;;5092409;28;20227;-58
2022/07/19 10:13:29;;;;;;;0.98;0.75;;;36.00;59.80;;;;;;5094024;28;20177;-57
2022/07/19 10:15:56;;;;;;;1.33;0.77;;;36.10;61.90;;;;;;5095843;28;20676;-57
2022/07/19 10:18:27;;;;;;;1.00;0.90;;;36.10;61.60;;;;;;5096567;28;20206;-57
2022/07/19 10:20:53;;;;;;;0.70;0.70;;;36.20;60.70;;;;;;5096618;28;20256;-58
2022/07/19 10:23:31;;;;;;;0.90;0.90;;;36.00;60.20;;;;;;5062313;28;20706;-57
2022/07/19 10:25:57;;;;;;;1.15;1.05;;;36.10;59.90;;;;;;5096634;28;20158;-54
2022/07/19 10:28:31;;;;;;;0.82;0.80;;;36.00;58.60;;;;;;5078415;28;20291;-57
2022/07/19 10:30:57;;;;;;;1.15;0.82;;;36.20;58.60;;;;;;5096212;28;20868;-55
2022/07/19 10:33:35;;;;;;;0.80;0.77;;;36.40;59.40;;;;;;5061861;28;20184;-57
2022/07/19 10:36:33;;;;;;;0.85;0.82;;;36.50;59.40;;;;;;5078530;28;20177;-58
2022/07/19 10:39:18;;;;;;;0.88;0.82;;;36.60;58.60;;;;;;5096484;28;20205;-57
2022/07/19 10:42:10;;;;;;;0.85;0.85;;;36.60;58.60;;;;;;5096282;28;20169;-58
2022/07/19 10:45:04;;;;;;;2.35;0.90;;;36.60;58.10;;;;;;5096301;28;20165;-58
2022/07/19 10:47:38;;;;;;;0.85;0.70;;;36.60;56.30;;;;;;5077678;28;20238;-57
2022/07/19 10:50:06;;;;;;;0.90;0.90;;;36.40;55.90;;;;;;5078151;28;20266;-57
2022/07/19 10:52:34;;;;;;;0.95;0.90;;;36.70;58.50;;;;;;5096436;28;20680;-58
2022/07/19 10:55:22;;;;;;;0.95;0.88;;;36.80;57.70;;;;;;5095785;28;20168;-57
2022/07/19 10:57:58;;;;;;;0.85;0.70;;;36.90;56.60;;;;;;5095885;28;20177;-58
2022/07/19 11:00:30;;;;;;;1.08;0.95;;;37.00;57.60;;;;;;5095894;28;20177;-57
2022/07/19 11:03:20;;;;;;;1.40;0.80;;;36.90;56.40;;;;;;5095937;28;20174;-58
2022/07/19 11:05:48;;;;;;;0.98;0.88;;;36.90;56.30;;;;;;5095659;28;20169;-57
2022/07/19 11:08:15;;;;;;;2.05;1.20;;;37.10;56.50;;;;;;5077301;28;20161;-57
2022/07/19 11:10:40;;;;;;;1.20;0.90;;;37.00;55.80;;;;;;5095776;28;20582;-57
2022/07/19 11:13:06;;;;;;;1.17;1.02;;;37.10;56.00;;;;;;5077490;28;20169;-58
2022/07/19 11:15:32;;;;;;;1.23;1.10;;;37.30;56.40;;;;;;5095665;28;20169;-58
2022/07/19 11:18:06;;;;;;;1.08;0.88;;;37.20;55.30;;;;;;5077620;28;20192;-57
2022/07/19 11:20:34;;;;;;;1.67;1.00;;;37.00;54.80;;;;;;5095416;28;20165;-57
2022/07/19 11:23:03;;;;;;;1.30;1.00;;;37.10;56.20;;;;;;5095302;28;20256;-57
2022/07/19 11:25:39;;;;;;;1.20;0.80;;;36.90;53.30;;;;;;5076863;28;20227;-57
2022/07/19 11:28:05;;;;;;;1.20;0.90;;;37.00;53.30;;;;;;5095328;28;20181;-57
2022/07/19 11:30:33;;;;;;;0.90;0.90;;;37.10;53.90;;;;;;5095193;28;20632;-57
2022/07/19 11:33:05;;;;;;;1.23;1.13;;;37.10;54.40;;;;;;5095196;28;20162;-57
2022/07/19 11:35:31;;;;;;;2.35;1.10;;;37.30;54.60;;;;;;5095542;28;20177;-58
2022/07/19 11:37:59;;;;;;;1.17;1.00;;;37.10;53.00;;;;;;5095199;28;20166;-57
2022/07/19 11:40:31;;;;;;;1.13;1.02;;;37.00;52.60;;;;;;5077110;28;20535;-57
2022/07/19 11:42:57;;;;;;;1.27;0.80;;;37.00;53.10;;;;;;5094928;28;20162;-56
2022/07/19 11:45:25;;;;;;;0.90;0.90;;;37.10;52.20;;;;;;5094956;28;20166;-57
2022/07/19 11:47:57;;;;;;;0.98;0.88;;;37.20;51.80;;;;;;5076660;28;20297;-57
2022/07/19 11:50:25;;;;;;;1.00;0.90;;;37.30;51.00;;;;;;5077027;28;20213;-57
2022/07/19 11:52:51;;;;;;;1.33;0.98;;;37.20;51.00;;;;;;5094970;28;20206;-57
2022/07/19 11:55:20;;;;;;;1.20;0.88;;;37.40;52.40;;;;;;5076754;28;20651;-58
2022/07/19 11:57:46;;;;;;;1.20;0.80;;;37.40;52.40;;;;;;5093984;28;20165;-57
2022/07/19 12:00:13;;;;;;;0.95;0.85;;;37.60;52.10;;;;;;5075796;28;20204;-57
2022/07/19 12:03:04;;;;;;;0.80;0.80;;;37.40;50.50;;;;;;5093923;28;20262;-57
2022/07/19 12:05:38;;;;;;;0.60;0.60;;;37.80;52.90;;;;;;5094723;28;20169;-57
2022/07/19 12:08:09;;;;;;;1.58;0.90;;;37.80;51.80;;;;;;5076420;28;20196;-58
2022/07/19 12:10:46;;;;;;;1.02;0.93;;;37.80;51.20;;;;;;5094435;28;20217;-57
2022/07/19 12:13:28;;;;;;;1.23;1.08;;;37.90;51.40;;;;;;5094375;28;20169;-57
2022/07/19 12:15:56;;;;;;;0.98;0.88;;;37.90;53.00;;;;;;5094331;28;20220;-58
2022/07/19 12:18:41;;;;;;;0.80;0.73;;;38.00;50.40;;;;;;5094207;28;20169;-57
2022/07/19 12:21:19;;;;;;;1.02;0.95;;;38.00;50.50;;;;;;5094310;28;20638;-57
2022/07/19 12:24:12;;;;;;;0.85;0.80;;;38.00;50.50;;;;;;5076149;28;20310;-56
2022/07/19 12:26:39;;;;;;;1.17;1.08;;;38.10;50.60;;;;;;5094272;28;20174;-57
2022/07/19 12:29:20;;;;;;;1.17;0.77;;;38.10;50.00;;;;;;5094106;28;20177;-58
2022/07/19 12:31:47;;;;;;;1.23;1.00;;;38.10;50.30;;;;;;5075847;28;20260;-57
2022/07/19 12:34:14;;;;;;;1.23;0.90;;;38.10;49.20;;;;;;5094145;28;20229;-57
2022/07/19 12:36:40;;;;;;;0.80;0.80;;;38.10;49.30;;;;;;5058746;28;20635;-57
2022/07/19 12:39:23;;;;;;;1.20;1.10;;;38.20;50.00;;;;;;5075885;28;20319;-58
2022/07/19 12:42:01;;;;;;;0.60;0.60;;;37.80;50.40;;;;;;5094034;28;20519;-58
2022/07/19 12:44:28;;;;;;;1.92;0.93;;;37.80;49.40;;;;;;5093802;28;20181;-57
2022/07/19 12:46:54;;;;;;;1.08;0.98;;;37.80;48.00;;;;;;5093969;28;20169;-57
2022/07/19 12:49:20;;;;;;;1.15;0.80;;;37.80;48.60;;;;;;5093749;28;20577;-58
2022/07/19 12:51:46;;;;;;;1.70;0.95;;;37.90;48.90;;;;;;5075740;28;20184;-57
2022/07/19 12:54:12;;;;;;;0.80;0.80;;;37.90;49.60;;;;;;5093770;28;20174;-57